createdAt,value
2023-02-03T00:00:03.242Z,100
2023-02-03T00:05:02.971Z,100
2023-02-03T00:10:03.159Z,100
2023-02-03T00:15:02.843Z,100
2023-02-03T00:20:02.650Z,100
2023-02-03T00:25:03.365Z,100
2023-02-03T00:30:03.420Z,100
2023-02-03T00:35:02.921Z,100
2023-02-03T00:40:02.613Z,100
2023-02-03T00:45:03.343Z,100
2023-02-03T00:50:03.033Z,100
2023-02-03T00:55:03.707Z,100
2023-02-03T01:00:03.639Z,100
2023-02-03T01:05:02.522Z,100
2023-02-03T01:10:02.598Z,100
2023-02-03T01:15:02.558Z,100
2023-02-03T01:20:03.493Z,100
2023-02-03T01:25:03.135Z,100
2023-02-03T01:30:02.893Z,100
2023-02-03T01:35:03.074Z,100
2023-02-03T01:40:02.748Z,100
2023-02-03T01:45:02.633Z,100
2023-02-03T01:50:03.456Z,100
2023-02-03T01:55:03.310Z,100
2023-02-03T02:00:02.918Z,100
2023-02-03T02:05:02.887Z,100
2023-02-03T02:10:03.415Z,100
2023-02-03T02:15:02.805Z,100
2023-02-03T02:20:03.367Z,100
2023-02-03T02:25:03.089Z,100
2023-02-03T02:30:02.879Z,100
2023-02-03T02:35:02.712Z,100
2023-02-03T02:40:02.507Z,100
2023-02-03T02:45:03.356Z,100
2023-02-03T02:50:03.437Z,100
2023-02-03T02:55:03.440Z,100
2023-02-03T03:00:02.664Z,100
2023-02-03T03:05:03.745Z,100
2023-02-03T03:10:03.156Z,100
2023-02-03T03:15:03.074Z,100
2023-02-03T03:20:02.880Z,100
2023-02-03T03:25:02.793Z,100
2023-02-03T03:30:03.283Z,100
2023-02-03T03:35:03.080Z,100
2023-02-03T03:40:03.124Z,100
2023-02-03T03:45:02.628Z,100
2023-02-03T03:50:03.285Z,99.4
2023-02-03T03:55:03.660Z,98.74
2023-02-03T04:00:03.268Z,98.93
2023-02-03T04:05:03.274Z,98.13
2023-02-03T04:10:02.773Z,97.89
2023-02-03T04:15:03.027Z,97.5
2023-02-03T04:20:02.828Z,96.62
2023-02-03T04:25:02.631Z,96.92
2023-02-03T04:30:03.305Z,97.07
2023-02-03T04:35:03.020Z,96.61
2023-02-03T04:40:02.721Z,97.17
2023-02-03T04:45:03.690Z,97.05
2023-02-03T04:50:02.895Z,97.81
2023-02-03T04:55:03.533Z,97.85
2023-02-03T05:00:02.708Z,96.66
2023-02-03T05:05:03.356Z,97.27
2023-02-03T05:10:03.194Z,97.6
2023-02-03T05:15:03.001Z,97.53
2023-02-03T05:20:03.149Z,97.22
2023-02-03T05:25:03.074Z,97.18
2023-02-03T05:30:02.635Z,96.53
2023-02-03T05:35:03.300Z,96.84
2023-02-03T05:40:02.726Z,95.61
2023-02-03T05:45:02.738Z,95.25
2023-02-03T05:50:02.551Z,94.4
2023-02-03T05:55:04.025Z,94.87
2023-02-03T06:00:03.149Z,94.2
2023-02-03T06:05:02.871Z,93.85
2023-02-03T06:10:02.811Z,93.41
2023-02-03T06:15:03.176Z,92.63
2023-02-03T06:20:02.942Z,92.31
2023-02-03T06:25:02.643Z,92.23
2023-02-03T06:30:02.815Z,91.61
2023-02-03T06:35:02.725Z,91.72
2023-02-03T06:40:03.491Z,91.32
2023-02-03T06:45:03.473Z,91.19
2023-02-03T06:50:03.061Z,90.73
2023-02-03T06:55:03.236Z,89.59
2023-02-03T07:00:03.526Z,90.53
2023-02-03T07:05:03.267Z,90.58
2023-02-03T07:10:02.911Z,90.79
2023-02-03T07:15:02.997Z,90.91
2023-02-03T07:20:02.925Z,90.88
2023-02-03T07:25:02.683Z,89.82
2023-02-03T07:30:03.616Z,90.2
2023-02-03T07:35:03.095Z,90.64
2023-02-03T07:40:02.942Z,92.2
2023-02-03T07:45:02.744Z,92.38
2023-02-03T07:50:03.483Z,92.94
2023-02-03T07:55:03.461Z,93.1
2023-02-03T08:00:03.127Z,92.09
2023-02-03T08:05:02.548Z,89.42
2023-02-03T08:10:02.755Z,89.29
2023-02-03T08:15:03.419Z,89.59
2023-02-03T08:20:03.390Z,87.71
2023-02-03T08:25:03.135Z,88.87
2023-02-03T08:30:02.945Z,90.49
2023-02-03T08:35:02.636Z,92.79
2023-02-03T08:40:03.504Z,94.6
2023-02-03T08:45:05.709Z,96.78
2023-02-03T08:50:03.022Z,98.52
2023-02-03T08:55:02.857Z,99.27
2023-02-03T09:00:03.472Z,98.12
2023-02-03T09:05:03.728Z,98.88
2023-02-03T09:10:02.982Z,99.67
2023-02-03T09:15:02.775Z,99.17
2023-02-03T09:20:02.674Z,98.43
2023-02-03T09:25:03.397Z,98.18
2023-02-03T09:30:03.593Z,98.04
2023-02-03T09:35:02.895Z,96.82
2023-02-03T09:40:02.948Z,95.77
2023-02-03T09:45:03.480Z,96.73
2023-02-03T09:50:03.289Z,96.47
2023-02-03T09:55:03.574Z,98.61
2023-02-03T10:00:03.158Z,99.1
2023-02-03T10:05:03.230Z,99.23
2023-02-03T10:10:02.940Z,97.79
2023-02-03T10:15:02.707Z,96.02
2023-02-03T10:20:02.580Z,95.38
2023-02-03T10:25:03.317Z,96.53
2023-02-03T10:30:03.085Z,97.55
2023-02-03T10:35:02.950Z,97.85
2023-02-03T10:40:02.595Z,98.18
2023-02-03T10:45:02.676Z,98.89
2023-02-03T10:50:02.508Z,98.67
2023-02-03T10:55:03.575Z,98.86
2023-02-03T11:00:03.177Z,97.92
2023-02-03T11:05:02.855Z,97.04
2023-02-03T11:10:02.695Z,97.45
2023-02-03T11:15:02.604Z,96.49
2023-02-03T11:20:02.551Z,97.27
2023-02-03T11:25:02.530Z,96.12
2023-02-03T11:30:03.336Z,95.07
2023-02-03T11:35:03.335Z,93.13
2023-02-03T11:40:03.047Z,92.43
2023-02-03T11:45:02.801Z,92.59
2023-02-03T11:50:02.631Z,92.26
2023-02-03T11:55:03.729Z,95.31
2023-02-03T12:00:03.224Z,97.53
2023-02-03T12:05:03.239Z,96.64
2023-02-03T12:10:02.974Z,94.33
2023-02-03T12:15:03.009Z,92.6
2023-02-03T12:20:03.423Z,90.31
2023-02-03T12:25:03.455Z,90.21
2023-02-03T12:30:03.266Z,90.51
2023-02-03T12:35:02.870Z,88.41
2023-02-03T12:40:02.588Z,85.4
2023-02-03T12:45:03.368Z,84.76
2023-02-03T12:50:03.051Z,83.71
2023-02-03T12:55:03.292Z,83.94
2023-02-03T13:00:02.854Z,81.27
2023-02-03T13:05:03.180Z,80.85
2023-02-03T13:10:03.248Z,78.83
2023-02-03T13:15:02.983Z,74.17
2023-02-03T13:20:02.803Z,75.04
2023-02-03T13:25:02.547Z,73.98
2023-02-03T13:30:02.849Z,73.84
2023-02-03T13:35:03.296Z,75.63
2023-02-03T13:40:03.094Z,73.57
2023-02-03T13:45:02.889Z,74.05
2023-02-03T13:50:02.723Z,74.1
2023-02-03T13:55:03.578Z,75.05
2023-02-03T14:00:03.313Z,72.23
2023-02-03T14:05:03.336Z,72.2
2023-02-03T14:10:03.181Z,73.76
2023-02-03T14:15:03.322Z,72.24
2023-02-03T14:20:02.673Z,77.04
2023-02-03T14:25:04.535Z,75.39
2023-02-03T14:30:04.092Z,73.85
2023-02-03T14:35:04.157Z,77.46
2023-02-03T14:40:04.109Z,77.33
2023-02-03T14:45:03.057Z,77.71
2023-02-03T14:50:02.895Z,77.66
2023-02-03T14:55:02.976Z,75.79
2023-02-03T15:00:03.378Z,74.83
2023-02-03T15:05:03.560Z,75.12
2023-02-03T15:10:03.007Z,74.42
2023-02-03T15:15:02.761Z,74.73
2023-02-03T15:20:03.455Z,73.62
2023-02-03T15:25:02.909Z,69.98
2023-02-03T15:30:02.912Z,68.39
2023-02-03T15:35:02.750Z,71.06
2023-02-03T15:40:02.801Z,72.01
2023-02-03T15:45:03.303Z,72.98
2023-02-03T15:50:02.951Z,71.88
2023-02-03T15:55:03.116Z,69.46
2023-02-03T16:00:03.446Z,70.6
2023-02-03T16:05:03.136Z,68.89
2023-02-03T16:10:02.885Z,69.98
2023-02-03T16:15:02.675Z,69.58
2023-02-03T16:20:03.457Z,72.75
2023-02-03T16:25:03.187Z,71.76
2023-02-03T16:30:03.031Z,71.84
2023-02-03T16:35:02.641Z,71.83
2023-02-03T16:40:03.660Z,72.78
2023-02-03T16:45:02.545Z,71.8
2023-02-03T16:50:03.434Z,72.82
2023-02-03T16:55:03.348Z,71.24
2023-02-03T17:00:02.983Z,68.98
2023-02-03T17:05:02.597Z,69.26
2023-02-03T17:10:03.378Z,71.85
2023-02-03T17:15:02.998Z,70.21
2023-02-03T17:20:03.003Z,68.02
2023-02-03T17:25:03.471Z,68.93
2023-02-03T17:30:03.357Z,68.33
2023-02-03T17:35:02.970Z,68.86
2023-02-03T17:55:04.028Z,71.41
2023-02-03T18:00:03.314Z,71.66
2023-02-03T18:05:02.930Z,71.66
2023-02-03T18:30:03.190Z,76.69
2023-02-03T18:35:03.311Z,77.16
2023-02-03T18:40:03.064Z,76.32
2023-02-03T18:45:02.958Z,76.3
2023-02-03T18:50:02.558Z,75.86
2023-02-03T18:55:03.718Z,77.05
2023-02-03T19:00:03.183Z,76.24
2023-02-03T19:05:02.971Z,76.6
2023-02-03T19:10:02.596Z,77.56
2023-02-03T19:15:03.313Z,77.48
2023-02-03T19:20:03.298Z,77.74
2023-02-03T19:25:03.006Z,77.77
2023-02-03T19:30:03.366Z,77.98
2023-02-03T19:40:02.900Z,78.45
2023-02-03T19:45:02.647Z,80.54
2023-02-03T19:50:02.555Z,81.99
2023-02-03T19:55:03.612Z,84.85
2023-02-03T20:00:03.165Z,85.77
2023-02-03T20:05:03.038Z,88.42
2023-02-03T20:10:02.570Z,87.79
2023-02-03T20:15:03.296Z,87.1
2023-02-03T20:20:03.179Z,85.62
2023-02-03T20:25:02.950Z,87.83
2023-02-03T20:30:02.839Z,88.02
2023-02-03T20:35:02.652Z,90.05
2023-02-03T20:40:02.501Z,91
2023-02-03T20:45:03.207Z,91.54
2023-02-03T20:50:02.949Z,92.92
2023-02-03T20:55:03.310Z,93.13
2023-02-03T21:00:03.452Z,93.12
2023-02-03T21:05:03.220Z,93.41
2023-02-03T21:10:03.027Z,93.43
2023-02-03T21:15:02.890Z,93.61
2023-02-03T21:20:02.559Z,94.88
2023-02-03T21:25:03.290Z,95.71
2023-02-03T21:30:03.051Z,96.04
2023-02-03T21:35:02.793Z,96.79
2023-02-03T21:40:02.543Z,97.65
2023-02-03T21:45:03.440Z,97.84
2023-02-03T21:50:03.633Z,97.67
2023-02-03T21:55:03.726Z,96.8
2023-02-03T22:00:02.932Z,95.82
2023-02-03T22:05:02.696Z,95.2
2023-02-03T22:10:02.758Z,94.87
2023-02-03T22:20:03.031Z,93.88
2023-02-03T22:25:03.019Z,93.62
2023-02-03T22:30:02.664Z,93.78
2023-02-03T22:35:03.392Z,95.19
2023-02-03T22:50:03.410Z,95.46
2023-02-03T22:55:03.708Z,90.17
2023-02-03T23:00:03.103Z,90.4
2023-02-03T23:05:03.417Z,91.54
2023-02-03T23:10:03.590Z,90.68
2023-02-03T23:15:03.109Z,88.4
2023-02-03T23:20:03.117Z,89.64
2023-02-03T23:25:02.899Z,87.51
2023-02-03T23:30:03.009Z,86.92
2023-02-03T23:35:02.749Z,86.9
2023-02-03T23:40:03.472Z,87.35
2023-02-03T23:45:03.212Z,87.29
2023-02-03T23:50:02.967Z,86.87
2023-02-03T23:55:03.022Z,87.81
